Time;durP1;ratioP1;P1;durP2;ratioP2;P2;SDS_P1;SDS_P2;PMS_P1;PMS_P2;Temp;Humidity;BMP_temperature;BMP_pressure;BME280_temperature;BME280_humidity;BME280_pressure;Samples;Min_cycle;Max_cycle;Signal;HPM_P1;HPM_P2
2023/02/05 00:01:43;;;;;;;;;4.50;4.50;;;;;8.90;67.35;103108.16;4974099;28;46628;-71
2023/02/05 00:04:08;;;;;;;;;3.75;3.75;;;;;8.86;67.20;103109.00;4974454;28;45292;-72
2023/02/05 00:06:34;;;;;;;;;3.75;3.75;;;;;8.84;67.34;103094.09;4975133;28;45356;-70
2023/02/05 00:08:59;;;;;;;;;1.75;1.75;;;;;8.82;67.19;103094.09;4974380;28;45366;-69
2023/02/05 00:11:25;;;;;;;;;3.50;3.50;;;;;8.90;67.16;103097.66;4972988;28;45496;-70
2023/02/05 00:13:50;;;;;;;;;1.00;1.00;;;;;8.87;67.04;103092.41;4972324;28;45461;-70
2023/02/05 00:16:19;;;;;;;;;2.00;2.00;;;;;8.91;66.79;103103.78;4976853;28;45461;-70
2023/02/05 00:18:45;;;;;;;;;2.00;2.00;;;;;8.90;66.67;103104.66;4973861;28;45532;-69
2023/02/05 00:21:11;;;;;;;;;3.25;3.25;;;;;8.87;66.29;103105.53;4973749;28;45373;-69
2023/02/05 00:23:37;;;;;;;;;2.25;2.25;;;;;8.79;66.07;103096.72;4974111;28;45695;-68
2023/02/05 00:26:04;;;;;;;;;2.00;2.00;;;;;8.81;66.12;103099.31;4973872;28;45188;-69
2023/02/05 00:28:34;;;;;;;;;3.00;3.00;;;;;8.79;65.68;103093.19;4974016;28;45382;-69
2023/02/05 00:31:00;;;;;;;;;4.50;4.50;;;;;8.76;66.39;103100.16;4974002;28;46222;-69
2023/02/05 00:33:26;;;;;;;;;4.00;4.00;;;;;8.77;66.05;103094.06;4973855;28;45339;-68
2023/02/05 00:35:51;;;;;;;;;3.00;3.00;;;;;8.77;65.99;103083.56;4972622;28;45211;-70
2023/02/05 00:38:17;;;;;;;;;3.00;3.00;;;;;8.80;66.13;103087.97;4973925;28;45236;-70
2023/02/05 00:40:42;;;;;;;;;4.25;4.25;;;;;8.85;65.96;103095.84;4972765;28;45998;-69
2023/02/05 00:43:08;;;;;;;;;4.00;3.75;;;;;8.85;65.89;103088.88;4973789;28;46104;-70
2023/02/05 00:45:34;;;;;;;;;2.25;2.25;;;;;8.85;65.77;103088.88;4972836;28;45424;-68
2023/02/05 00:48:06;;;;;;;;;3.75;3.75;;;;;8.81;65.64;103089.72;4971849;28;45536;-69
2023/02/05 00:50:32;;;;;;;;;2.25;2.25;;;;;8.83;65.49;103095.88;4971669;28;46347;-72
2023/02/05 00:52:58;;;;;;;;;1.75;1.75;;;;;8.77;65.32;103096.69;4972044;28;45798;-74
2023/02/05 00:55:23;;;;;;;;;4.00;4.00;;;;;8.78;65.38;103092.31;4971864;28;45357;-71
2023/02/05 00:57:49;;;;;;;;;3.75;3.75;;;;;8.77;65.30;103090.56;4973753;28;45536;-71
2023/02/05 01:00:14;;;;;;;;;2.50;2.50;;;;;8.74;65.13;103091.41;4973594;28;46435;-71
2023/02/05 01:02:40;;;;;;;;;3.75;3.75;;;;;8.70;65.22;103079.13;4974349;28;45427;-72
2023/02/05 01:05:05;;;;;;;;;4.25;4.25;;;;;8.75;64.97;103079.19;4974320;28;45489;-72
2023/02/05 01:07:31;;;;;;;;;3.00;3.00;;;;;8.78;65.04;103073.97;4973463;28;45320;-71
2023/02/05 01:09:56;;;;;;;;;2.00;2.00;;;;;8.71;64.96;103052.03;4973171;28;46277;-70
2023/02/05 01:12:21;;;;;;;;;4.50;4.50;;;;;8.72;64.71;103058.16;4973115;28;45384;-71
2023/02/05 01:14:47;;;;;;;;;3.00;3.00;;;;;8.79;64.68;103053.81;4973302;28;45459;-71
2023/02/05 01:17:13;;;;;;;;;2.50;2.50;;;;;8.81;64.95;103057.34;4973791;28;45473;-71
2023/02/05 01:19:38;;;;;;;;;2.00;2.00;;;;;8.81;64.88;103063.47;4975767;28;46225;-71
2023/02/05 01:22:04;;;;;;;;;2.25;2.25;;;;;8.70;64.88;103045.03;4979518;28;45536;-71
2023/02/05 01:24:29;;;;;;;;;4.25;3.50;;;;;8.80;64.21;103048.59;4976451;28;45184;-71
2023/02/05 01:26:57;;;;;;;;;4.25;4.25;;;;;8.78;64.98;103042.47;4974130;28;45558;-71
2023/02/05 01:29:23;;;;;;;;;4.50;4.50;;;;;8.75;64.52;103042.44;4973577;28;45295;-70
2023/02/05 01:31:49;;;;;;;;;4.75;4.75;;;;;8.80;64.26;103042.47;4972567;28;45402;-70
2023/02/05 01:34:14;;;;;;;;;5.00;5.00;;;;;8.79;64.12;103041.59;4973488;28;45355;-71
2023/02/05 01:36:39;;;;;;;;;3.50;3.50;;;;;8.86;64.05;103047.75;4973706;28;45620;-70
2023/02/05 01:39:05;;;;;;;;;4.00;4.00;;;;;8.93;63.75;103059.19;4973361;28;45935;-71
2023/02/05 01:41:30;;;;;;;;;5.25;5.25;;;;;8.92;63.57;103047.78;4973674;28;45980;-70
2023/02/05 01:44:12;;;;;;;;;3.00;3.00;;;;;8.95;63.32;103046.94;4973162;28;45359;-70
2023/02/05 01:46:42;;;;;;;;;3.50;3.50;;;;;8.95;63.25;103036.44;4973896;28;45272;-71
2023/02/05 01:49:14;;;;;;;;;5.75;5.75;;;;;8.94;63.01;103030.28;4974998;28;48800;-71
2023/02/05 01:51:40;;;;;;;;;2.00;2.00;;;;;8.95;62.94;103032.06;4972902;28;45244;-71
2023/02/05 01:54:06;;;;;;;;;4.25;4.25;;;;;9.01;62.76;103033.84;4971519;28;45297;-72
2023/02/05 01:56:54;;;;;;;;;4.00;4.00;;;;;9.00;62.83;103029.47;4973054;28;45323;-70
2023/02/05 01:59:28;;;;;;;;;3.25;3.25;;;;;9.03;62.76;103024.25;4972443;28;45621;-70
2023/02/05 02:01:54;;;;;;;;;3.00;3.00;;;;;9.05;62.58;103025.13;4972453;28;45213;-71
2023/02/05 02:04:40;;;;;;;;;4.50;3.00;;;;;9.08;62.65;103019.88;4972211;28;45377;-71
2023/02/05 02:07:09;;;;;;;;;3.50;3.50;;;;;9.11;62.88;103017.28;4972595;28;45357;-71
2023/02/05 02:09:35;;;;;;;;;5.00;5.00;;;;;9.05;61.99;102998.88;4972054;28;46836;-72
2023/02/05 02:12:01;;;;;;;;;3.00;3.00;;;;;9.09;62.35;102998.00;4972183;28;45537;-70
2023/02/05 02:14:31;;;;;;;;;4.75;4.75;;;;;9.09;62.29;103000.63;4972261;28;45271;-71
2023/02/05 02:16:59;;;;;;;;;4.50;4.50;;;;;9.12;61.90;102999.78;4971129;28;45239;-71
2023/02/05 02:19:41;;;;;;;;;3.00;3.00;;;;;9.05;61.71;102999.75;4971885;28;45354;-72
2023/02/05 02:22:33;;;;;;;;;3.50;3.50;;;;;9.02;61.72;102991.88;4972149;27;45294;-71
2023/02/05 02:25:29;;;;;;;;;1.75;1.75;;;;;9.00;61.49;102990.94;4972288;28;45367;-71
2023/02/05 02:28:08;;;;;;;;;2.25;2.25;;;;;8.93;61.65;102994.41;4975753;28;45276;-71
2023/02/05 02:30:45;;;;;;;;;2.50;2.50;;;;;8.93;61.67;102998.81;4974996;28;45374;-70
2023/02/05 02:33:24;;;;;;;;;4.00;3.25;;;;;8.80;61.45;102972.50;4975779;28;45321;-71
2023/02/05 02:35:52;;;;;;;;;3.00;3.00;;;;;8.88;61.90;102993.50;4977118;28;45469;-70
2023/02/05 02:38:28;;;;;;;;;3.00;3.00;;;;;8.85;61.91;102998.75;4975475;28;45253;-72
2023/02/05 02:41:00;;;;;;;;;3.00;3.00;;;;;8.77;62.21;103012.69;4975203;28;46420;-72
2023/02/05 02:43:43;;;;;;;;;3.00;3.00;;;;;8.75;62.39;103027.56;4975429;28;45422;-71
2023/02/05 02:46:40;;;;;;;;;4.00;4.00;;;;;8.69;62.16;103026.66;4975421;28;45387;-71
2023/02/05 02:49:12;;;;;;;;;2.75;2.75;;;;;8.67;62.51;103023.16;4975050;28;45371;-71
2023/02/05 02:51:40;;;;;;;;;3.00;3.00;;;;;8.60;62.92;103036.22;4975124;28;45485;-71
2023/02/05 02:54:11;;;;;;;;;2.00;2.00;;;;;8.65;63.11;103053.75;4975055;28;45365;-70
2023/02/05 02:56:40;;;;;;;;;4.50;4.50;;;;;8.61;62.74;103058.06;4973882;28;45339;-70
2023/02/05 02:59:12;;;;;;;;;3.00;3.00;;;;;8.56;62.83;103060.66;4975530;28;45252;-71
2023/02/05 03:01:41;;;;;;;;;4.00;4.00;;;;;8.48;62.97;103044.81;4975544;28;45310;-72
2023/02/05 03:04:49;;;;;;;;;1.50;1.50;;;;;8.48;63.46;103055.31;4974937;28;45418;-71
2023/02/05 03:07:34;;;;;;;;;2.00;2.00;;;;;8.43;63.47;103045.63;4896435;29;45372;-72
2023/02/05 03:10:15;;;;;;;;;3.00;3.00;;;;;8.43;63.87;103049.16;4972735;28;45469;-70
2023/02/05 03:12:41;;;;;;;;;3.00;3.00;;;;;8.47;63.95;103047.41;4975021;28;46356;-71
2023/02/05 03:15:07;;;;;;;;;5.00;5.00;;;;;8.41;64.02;103037.78;4974711;28;45212;-70
2023/02/05 03:17:34;;;;;;;;;2.00;2.00;;;;;8.43;64.27;103046.53;4974984;28;45331;-70
2023/02/05 03:20:25;;;;;;;;;2.50;2.50;;;;;8.46;64.15;103056.16;4975189;28;45529;-72
2023/02/05 03:22:51;;;;;;;;;4.25;4.25;;;;;8.46;64.17;103057.06;4976106;28;45900;-72
2023/02/05 03:25:20;;;;;;;;;4.00;4.00;;;;;8.45;63.90;103060.53;4974751;28;45431;-71
2023/02/05 03:27:46;;;;;;;;;0.00;0.00;;;;;8.42;64.25;103060.50;4975602;28;45421;-71
2023/02/05 03:30:12;;;;;;;;;3.50;3.50;;;;;8.39;64.44;103055.25;4975304;28;45503;-72
2023/02/05 03:32:45;;;;;;;;;3.75;3.75;;;;;8.40;64.17;103059.63;4974894;28;45374;-70
2023/02/05 03:35:25;;;;;;;;;3.00;3.00;;;;;8.42;64.96;103067.47;4974301;28;45362;-71
2023/02/05 03:38:22;;;;;;;;;3.75;3.75;;;;;8.41;65.01;103061.38;4973429;28;45308;-70
2023/02/05 03:41:11;;;;;;;;;4.50;4.50;;;;;8.28;64.56;103052.50;4974888;28;45263;-71
2023/02/05 03:43:54;;;;;;;;;3.00;3.00;;;;;8.26;64.92;103056.84;4974823;28;46182;-70
2023/02/05 03:46:46;;;;;;;;;6.00;6.00;;;;;8.23;65.22;103058.59;4976115;28;45410;-71
2023/02/05 03:49:29;;;;;;;;;3.00;3.00;;;;;8.22;65.56;103062.94;4975106;28;45212;-71
2023/02/05 03:52:05;;;;;;;;;4.00;4.00;;;;;8.23;65.63;103054.22;4975156;28;45221;-70
2023/02/05 03:54:43;;;;;;;;;4.00;4.00;;;;;8.18;66.13;103042.81;4972684;28;47604;-70
2023/02/05 03:57:21;;;;;;;;;4.00;4.00;;;;;8.26;66.19;103062.09;4974021;28;45426;-71
2023/02/05 03:59:48;;;;;;;;;4.00;4.00;;;;;8.24;66.10;103044.63;4974535;28;45320;-71
2023/02/05 04:02:15;;;;;;;;;5.00;5.00;;;;;8.27;66.06;103049.88;4974740;28;45543;-71
2023/02/05 04:04:40;;;;;;;;;5.00;5.00;;;;;8.24;66.08;103039.38;4972534;28;45396;-70
2023/02/05 04:07:05;;;;;;;;;4.50;4.50;;;;;8.24;66.21;103042.00;4972774;28;45312;-71
2023/02/05 04:09:31;;;;;;;;;5.25;5.25;;;;;8.28;66.55;103044.63;4973572;28;45232;-71
2023/02/05 04:11:56;;;;;;;;;4.25;4.25;;;;;8.30;66.20;103039.44;4974204;28;46972;-71
2023/02/05 04:14:21;;;;;;;;;4.00;4.00;;;;;8.26;66.38;103038.50;4974250;28;46024;-72
2023/02/05 04:16:47;;;;;;;;;4.50;4.50;;;;;8.37;66.34;103046.47;4974825;28;45232;-71
2023/02/05 04:19:12;;;;;;;;;3.25;3.25;;;;;8.38;66.82;103050.84;4974086;28;45579;-69
2023/02/05 04:21:37;;;;;;;;;4.75;4.75;;;;;8.35;66.64;103053.47;4974746;28;45215;-71
2023/02/05 04:24:03;;;;;;;;;3.75;3.75;;;;;8.32;67.16;103053.44;4972193;28;47977;-70
2023/02/05 04:26:29;;;;;;;;;4.00;4.00;;;;;8.31;67.22;103060.41;4972611;28;45798;-71
2023/02/05 04:28:54;;;;;;;;;5.00;5.00;;;;;8.31;66.96;103056.91;4973866;28;45677;-70
2023/02/05 04:31:19;;;;;;;;;5.00;5.00;;;;;8.30;67.21;103063.88;4974188;28;45356;-70
2023/02/05 04:33:45;;;;;;;;;5.00;5.00;;;;;8.28;67.28;103073.47;4973530;28;45326;-71
2023/02/05 04:36:10;;;;;;;;;4.50;4.50;;;;;8.29;67.10;103080.50;4973729;28;45342;-70
2023/02/05 04:38:36;;;;;;;;;6.75;6.75;;;;;8.19;67.82;103069.06;4972262;28;45438;-70
2023/02/05 04:41:01;;;;;;;;;6.00;6.00;;;;;8.23;67.61;103077.81;4973655;28;45553;-70
2023/02/05 04:43:26;;;;;;;;;7.00;7.00;;;;;8.20;67.73;103077.78;4973880;28;46068;-71
2023/02/05 04:45:52;;;;;;;;;7.25;7.25;;;;;8.20;68.01;103083.03;4974241;28;45405;-72
2023/02/05 04:48:20;;;;;;;;;8.00;8.00;;;;;8.18;67.83;103082.13;4973646;28;45342;-70
2023/02/05 04:50:45;;;;;;;;;7.25;7.25;;;;;8.16;67.97;103073.38;4972519;28;45591;-71
2023/02/05 04:53:10;;;;;;;;;9.00;7.75;;;;;8.14;68.08;103083.84;4972090;28;46297;-71
2023/02/05 04:55:35;;;;;;;;;7.50;7.50;;;;;8.09;67.72;103082.94;4973412;28;51934;-70
2023/02/05 04:58:01;;;;;;;;;5.75;5.75;;;;;8.04;68.38;103077.63;4973703;28;45349;-71
2023/02/05 05:00:27;;;;;;;;;6.00;6.00;;;;;8.04;68.11;103068.91;4973590;28;45632;-71
2023/02/05 05:02:52;;;;;;;;;5.50;5.50;;;;;7.97;68.36;103061.84;4973575;28;46565;-70
2023/02/05 05:05:18;;;;;;;;;8.25;8.25;;;;;7.98;67.99;103061.84;4973985;28;45332;-71
2023/02/05 05:07:43;;;;;;;;;8.00;8.00;;;;;7.98;68.55;103082.81;4974013;28;45453;-71
2023/02/05 05:10:10;;;;;;;;;8.00;8.00;;;;;7.97;68.90;103082.81;4973275;28;45656;-71
2023/02/05 05:12:36;;;;;;;;;10.00;10.00;;;;;7.99;69.08;103081.94;4972905;28;46105;-70
2023/02/05 05:15:03;;;;;;;;;9.50;7.75;;;;;7.97;69.03;103052.22;4972970;28;45532;-70
2023/02/05 05:17:29;;;;;;;;;9.00;9.00;;;;;8.05;69.08;103068.03;4972931;28;45361;-71
2023/02/05 05:19:54;;;;;;;;;8.75;8.75;;;;;8.04;69.01;103064.53;4972245;28;45415;-71
2023/02/05 05:22:19;;;;;;;;;6.75;6.75;;;;;8.09;68.39;103087.28;4972622;28;62286;-72
2023/02/05 05:24:45;;;;;;;;;8.25;8.25;;;;;7.96;68.53;103076.66;4972855;28;45180;-71
2023/02/05 05:27:10;;;;;;;;;7.50;7.50;;;;;8.02;68.60;103094.22;4971644;28;45237;-70
2023/02/05 05:29:35;;;;;;;;;7.50;7.50;;;;;7.92;68.85;103080.13;4973243;28;45185;-70
2023/02/05 05:32:01;;;;;;;;;6.25;6.25;;;;;7.96;68.94;103102.00;4973022;28;45462;-70
2023/02/05 05:34:26;;;;;;;;;8.50;8.50;;;;;7.96;68.85;103100.25;4971370;28;45264;-71
2023/02/05 05:36:52;;;;;;;;;6.75;6.75;;;;;7.98;68.98;103095.91;4973068;28;45779;-70
2023/02/05 05:44:50;;;;;;;;;8.50;8.50;;;;;7.92;69.47;103114.19;4972327;28;45225;-70
2023/02/05 05:47:16;;;;;;;;;7.50;7.50;;;;;7.89;69.58;103117.63;4973640;28;45300;-71
2023/02/05 05:49:41;;;;;;;;;10.25;10.25;;;;;7.88;70.25;103117.63;4982267;28;45445;-69
2023/02/05 05:52:06;;;;;;;;;7.50;7.50;;;;;7.92;70.38;103115.91;4977398;28;54914;-69
2023/02/05 05:54:32;;;;;;;;;8.00;8.00;;;;;7.92;70.18;103114.19;4973072;28;45360;-69
2023/02/05 05:56:57;;;;;;;;;9.00;9.00;;;;;7.90;70.20;103118.53;4973057;28;45296;-69
2023/02/05 05:59:22;;;;;;;;;8.00;8.00;;;;;7.85;70.52;103113.22;4972903;28;45637;-68
2023/02/05 06:01:48;;;;;;;;;11.50;11.50;;;;;7.89;70.48;103122.00;4974497;28;45377;-69
2023/02/05 06:04:13;;;;;;;;;9.25;9.25;;;;;7.90;70.32;103119.38;4974829;28;56959;-68
2023/02/05 06:06:38;;;;;;;;;9.25;9.25;;;;;7.86;70.95;103116.72;4975555;28;45219;-69
2023/02/05 06:09:04;;;;;;;;;8.00;8.00;;;;;7.84;70.74;103113.22;4975628;28;45474;-68
2023/02/05 06:11:29;;;;;;;;;10.50;10.50;;;;;7.81;71.42;103106.19;4975152;28;51580;-69
2023/02/05 06:13:54;;;;;;;;;12.25;12.00;;;;;7.89;71.25;103122.00;4975680;28;45244;-68
2023/02/05 06:16:20;;;;;;;;;12.00;12.00;;;;;7.81;71.57;103097.47;4975514;28;45316;-69
2023/02/05 06:18:45;;;;;;;;;8.50;8.50;;;;;7.81;71.40;103103.56;4975954;28;46092;-70
2023/02/05 06:21:10;;;;;;;;;8.50;8.50;;;;;7.86;71.50;103111.50;4975096;28;57521;-68
2023/02/05 06:23:36;;;;;;;;;12.50;12.50;;;;;7.84;71.36;103110.59;4975228;28;45315;-69
2023/02/05 06:26:01;;;;;;;;;10.00;10.00;;;;;7.88;71.43;103117.63;4975353;28;45248;-70
2023/02/05 06:28:26;;;;;;;;;13.50;13.50;;;;;7.89;71.54;103117.63;4975553;28;45328;-68
2023/02/05 06:30:52;;;;;;;;;11.00;10.50;;;;;7.91;71.63;103112.44;4975500;28;45400;-70
2023/02/05 06:33:17;;;;;;;;;12.00;12.00;;;;;7.96;71.66;103113.34;4975222;28;45359;-68
2023/02/05 06:35:42;;;;;;;;;9.25;9.25;;;;;7.84;70.93;103080.00;4973770;28;45404;-69
2023/02/05 06:38:08;;;;;;;;;13.00;13.00;;;;;7.94;71.37;103108.94;4975216;28;45415;-69
2023/02/05 06:40:33;;;;;;;;;9.00;9.00;;;;;7.92;71.22;103095.84;4975143;28;46110;-69
2023/02/05 06:42:58;;;;;;;;;10.50;10.50;;;;;7.94;72.08;103095.84;4976637;28;45367;-72
2023/02/05 06:45:24;;;;;;;;;7.50;7.50;;;;;7.92;71.93;103093.22;4975487;28;53108;-69
2023/02/05 06:47:52;;;;;;;;;9.50;9.50;;;;;7.90;71.01;103089.69;4975297;28;45247;-69
2023/02/05 06:50:18;;;;;;;;;11.50;11.50;;;;;7.91;71.77;103094.09;4974788;28;46495;-69
2023/02/05 06:52:44;;;;;;;;;13.75;12.75;;;;;7.89;71.51;103090.56;4974631;28;45239;-68
2023/02/05 06:55:09;;;;;;;;;11.00;11.00;;;;;7.88;72.22;103094.03;4974812;28;45227;-70
2023/02/05 06:57:35;;;;;;;;;12.25;12.25;;;;;7.77;71.91;103077.31;4974916;28;45224;-69
2023/02/05 07:00:00;;;;;;;;;10.50;10.50;;;;;7.83;71.96;103101.84;4974615;28;46104;-68
2023/02/05 07:02:26;;;;;;;;;10.50;10.50;;;;;7.80;72.10;103106.19;4974325;28;63107;-68
2023/02/05 07:04:51;;;;;;;;;12.25;12.25;;;;;7.65;72.07;103096.38;4975023;28;45238;-69
2023/02/05 07:07:16;;;;;;;;;10.75;10.75;;;;;7.73;72.70;103116.59;4974137;28;45460;-68
2023/02/05 07:09:43;;;;;;;;;15.00;15.00;;;;;7.72;72.72;103120.06;4974386;28;45170;-69
2023/02/05 07:12:08;;;;;;;;;13.50;13.50;;;;;7.69;72.71;103113.91;4974839;28;45252;-69
2023/02/05 07:14:37;;;;;;;;;14.25;13.75;;;;;7.71;72.62;103117.41;4976265;28;45198;-68
2023/02/05 07:17:03;;;;;;;;;12.00;12.00;;;;;7.66;73.50;103114.75;4975265;28;45502;-69
2023/02/05 07:19:28;;;;;;;;;17.00;14.75;;;;;7.64;73.57;103110.34;4974391;28;46206;-69
2023/02/05 07:21:53;;;;;;;;;9.00;9.00;;;;;7.66;73.37;103116.47;4974868;28;45406;-70
2023/02/05 07:24:19;;;;;;;;;12.00;12.00;;;;;7.67;73.13;103118.22;4974476;28;45580;-69
2023/02/05 07:26:44;;;;;;;;;12.00;11.50;;;;;7.66;73.49;103120.00;4974563;28;45338;-69
2023/02/05 07:29:10;;;;;;;;;8.00;8.00;;;;;7.65;73.40;103123.47;4974270;28;45308;-70
2023/02/05 07:31:36;;;;;;;;;12.75;11.75;;;;;7.67;73.72;103127.00;4974644;27;45589;-70
2023/02/05 07:34:01;;;;;;;;;12.50;12.50;;;;;7.70;74.12;103126.13;4975032;28;45399;-70
2023/02/05 07:36:26;;;;;;;;;11.50;11.50;;;;;7.73;73.95;103124.44;4975017;28;45253;-69
2023/02/05 07:38:52;;;;;;;;;12.25;12.25;;;;;7.72;73.78;103119.16;4975660;28;45257;-69
2023/02/05 07:41:17;;;;;;;;;16.75;16.75;;;;;7.57;73.63;103099.78;4974786;28;45233;-69
2023/02/05 07:43:43;;;;;;;;;19.50;17.50;;;;;7.74;74.00;103117.44;4975023;28;45354;-71
2023/02/05 07:46:12;;;;;;;;;16.25;16.00;;;;;7.79;73.59;103126.25;4975077;28;45597;-71
2023/02/05 07:48:38;;;;;;;;;15.00;14.50;;;;;7.84;74.11;103135.03;4970312;28;45561;-70
2023/02/05 07:51:04;;;;;;;;;16.75;16.25;;;;;7.84;73.63;103139.41;4964487;28;45478;-74
2023/02/05 07:53:29;;;;;;;;;18.25;17.00;;;;;7.82;74.29;103138.53;4973969;28;45231;-71
2023/02/05 07:55:54;;;;;;;;;13.25;13.00;;;;;7.69;74.48;103106.03;4985845;27;45308;-72
2023/02/05 07:58:20;;;;;;;;;13.75;13.75;;;;;7.89;74.36;103142.97;4953901;28;56123;-70
2023/02/05 08:00:45;;;;;;;;;14.00;14.00;;;;;7.89;74.05;103149.09;4954712;28;45327;-72
2023/02/05 08:03:11;;;;;;;;;20.25;19.00;;;;;7.90;74.22;103158.72;4960006;28;45328;-72
2023/02/05 08:05:37;;;;;;;;;21.00;21.00;;;;;7.93;74.34;103167.47;4974324;28;45215;-78
2023/02/05 08:08:03;;;;;;;;;21.25;21.25;;;;;7.92;74.31;103163.09;4956873;28;45567;-72
2023/02/05 08:10:29;;;;;;;;;18.50;18.50;;;;;7.92;74.10;103161.38;4953855;28;45494;-70
2023/02/05 08:12:54;;;;;;;;;19.25;19.25;;;;;7.87;74.93;103156.03;4954520;28;45898;-71
2023/02/05 08:15:20;;;;;;;;;21.50;19.00;;;;;7.94;75.38;103161.38;4954470;28;45360;-74
2023/02/05 08:17:45;;;;;;;;;20.50;20.50;;;;;7.93;74.51;103159.59;4954082;28;45979;-76
2023/02/05 08:20:11;;;;;;;;;21.00;21.00;;;;;7.95;74.88;103163.13;4954538;28;45516;-73
2023/02/05 08:22:39;;;;;;;;;20.50;20.50;;;;;7.98;75.32;103164.06;4954267;28;45887;-74
2023/02/05 08:25:07;;;;;;;;;17.50;17.00;;;;;7.94;75.14;103162.25;4954346;28;45272;-71
2023/02/05 08:27:34;;;;;;;;;16.75;16.75;;;;;8.01;75.82;103168.47;4954216;28;45952;-69
2023/02/05 08:30:00;;;;;;;;;17.50;17.50;;;;;8.03;75.90;103172.84;4953502;28;45355;-72
2023/02/05 08:32:25;;;;;;;;;20.50;20.50;;;;;8.04;75.76;103171.13;4953686;28;45437;-71
2023/02/05 08:34:50;;;;;;;;;24.50;23.50;;;;;8.00;76.47;103178.06;4953797;28;45483;-72
2023/02/05 08:37:16;;;;;;;;;18.75;18.75;;;;;7.97;76.78;103178.03;4958860;28;46437;-73
2023/02/05 08:39:41;;;;;;;;;21.75;21.75;;;;;7.93;77.20;103167.47;4972989;28;45456;-71
2023/02/05 08:42:06;;;;;;;;;22.25;22.25;;;;;8.02;76.96;103178.09;4971111;28;51852;-74
2023/02/05 08:44:33;;;;;;;;;16.25;15.50;;;;;8.02;77.21;103181.59;4973170;28;45389;-75
2023/02/05 08:46:58;;;;;;;;;15.75;15.75;;;;;8.01;76.96;103179.81;4973775;28;46181;-75
2023/02/05 08:49:23;;;;;;;;;19.00;19.00;;;;;8.02;77.47;103176.34;4975880;27;45390;-73
2023/02/05 08:51:49;;;;;;;;;24.25;24.25;;;;;8.05;77.77;103180.75;4972976;28;45374;-77
2023/02/05 08:54:15;;;;;;;;;19.50;18.50;;;;;8.03;77.73;103178.09;4967473;28;45573;-76
2023/02/05 08:56:42;;;;;;;;;18.75;18.75;;;;;8.06;78.28;103190.38;4953477;28;45368;-77
2023/02/05 08:59:08;;;;;;;;;19.00;19.00;;;;;8.03;78.15;103190.34;4967425;28;45302;-77
2023/02/05 09:01:36;;;;;;;;;20.25;19.50;;;;;7.92;78.10;103173.56;4973268;28;45485;-77
2023/02/05 09:04:03;;;;;;;;;21.75;21.75;;;;;7.94;78.66;103177.09;4973429;28;45422;-76
2023/02/05 09:06:28;;;;;;;;;21.75;21.75;;;;;8.00;78.65;103187.69;4974175;28;46208;-74
2023/02/05 09:08:54;;;;;;;;;22.75;22.75;;;;;8.04;78.49;103181.63;4975550;28;45865;-73
2023/02/05 09:11:21;;;;;;;;;17.75;17.75;;;;;8.01;79.10;103171.09;4965450;28;52678;-69
2023/02/05 09:13:46;;;;;;;;;18.50;18.50;;;;;8.06;79.21;103192.09;4951781;28;45345;-76
2023/02/05 09:16:12;;;;;;;;;21.75;21.75;;;;;8.10;79.33;103191.28;4957740;28;45240;-72
2023/02/05 09:18:37;;;;;;;;;25.75;25.75;;;;;8.06;80.19;103184.25;4968133;28;45317;-70
2023/02/05 09:21:06;;;;;;;;;17.25;17.25;;;;;8.08;80.74;103193.00;4972112;28;45276;-72
2023/02/05 09:23:31;;;;;;;;;24.50;24.50;;;;;8.03;80.63;103185.97;4954981;28;45490;-70
2023/02/05 09:25:58;;;;;;;;;21.00;21.00;;;;;8.06;81.21;103193.00;4970488;28;47147;-68
2023/02/05 09:28:23;;;;;;;;;23.00;22.25;;;;;8.08;81.76;103190.38;4971490;28;45406;-69
2023/02/05 09:30:48;;;;;;;;;17.25;17.25;;;;;8.09;81.07;103193.03;4972238;28;45286;-71
2023/02/05 09:33:14;;;;;;;;;21.50;20.75;;;;;8.09;81.39;103186.91;4972793;28;45285;-68
2023/02/05 09:35:40;;;;;;;;;16.75;16.75;;;;;8.14;80.77;103198.31;4973334;28;45889;-68
2023/02/05 09:38:06;;;;;;;;;20.00;20.00;;;;;8.14;81.30;103201.84;4975254;28;45264;-68
2023/02/05 09:40:39;;;;;;;;;19.50;19.00;;;;;8.18;81.03;103203.63;4975368;28;45328;-69
2023/02/05 09:43:28;;;;;;;;;18.25;18.25;;;;;8.28;81.26;103211.59;4975695;28;45267;-71
2023/02/05 09:46:04;;;;;;;;;21.50;21.50;;;;;8.36;80.83;103212.56;4974185;28;46125;-70
2023/02/05 09:48:48;;;;;;;;;11.00;11.00;;;;;8.44;80.84;103215.25;4989990;28;45456;-68
2023/02/05 09:51:21;;;;;;;;;12.75;12.75;;;;;8.53;79.87;103217.16;4962521;28;45477;-75
2023/02/05 09:53:53;;;;;;;;;15.25;15.25;;;;;8.58;79.88;103215.47;4973853;28;45928;-73
2023/02/05 09:56:20;;;;;;;;;13.25;13.25;;;;;8.67;79.46;103212.06;4973671;28;46999;-70
2023/02/05 09:58:53;;;;;;;;;12.50;12.50;;;;;8.71;78.33;103214.72;4992870;28;45481;-70
2023/02/05 10:01:33;;;;;;;;;11.75;11.75;;;;;8.73;77.93;103210.38;4975539;28;45510;-70
2023/02/05 10:04:02;;;;;;;;;10.75;10.75;;;;;8.84;77.52;103204.34;4971585;28;45661;-70
2023/02/05 10:06:45;;;;;;;;;9.25;8.25;;;;;8.80;76.67;103185.06;4979529;28;46333;-71
2023/02/05 10:09:35;;;;;;;;;7.75;7.75;;;;;8.93;75.39;103209.66;4975394;28;47441;-74
2023/02/05 10:12:12;;;;;;;;;9.00;9.00;;;;;8.95;76.08;103217.56;4982105;28;45464;-72
2023/02/05 10:14:50;;;;;;;;;8.75;8.75;;;;;8.97;75.44;103206.19;4985309;28;45392;-73
2023/02/05 10:17:41;;;;;;;;;7.50;7.50;;;;;9.00;73.99;103211.47;4980543;28;45474;-72
2023/02/05 10:20:34;;;;;;;;;9.75;9.75;;;;;9.03;73.96;103219.41;4940597;28;45294;-69
2023/02/05 10:23:12;;;;;;;;;5.00;5.00;;;;;8.88;73.38;103180.78;4982980;28;45355;-72
2023/02/05 10:25:49;;;;;;;;;6.00;5.25;;;;;9.18;73.50;103221.28;4973147;28;45401;-73
2023/02/05 10:28:31;;;;;;;;;2.75;2.75;;;;;9.15;70.40;103208.13;4985155;27;47172;-74
2023/02/05 10:31:10;;;;;;;;;3.25;3.25;;;;;9.00;70.62;103192.25;4981810;28;45436;-76
2023/02/05 10:34:03;;;;;;;;;3.00;3.00;;;;;9.16;70.90;103224.78;5054316;27;45766;-72
2023/02/05 10:36:29;;;;;;;;;7.50;6.75;;;;;9.26;70.71;103241.47;4966385;28;45625;-69
2023/02/05 10:38:56;;;;;;;;;1.75;1.75;;;;;9.28;70.08;103243.25;4982167;28;47954;-74
2023/02/05 10:41:25;;;;;;;;;13.00;13.00;;;;;9.30;69.25;103259.91;4972872;28;45376;-74
2023/02/05 10:44:13;;;;;;;;;5.75;5.75;;;;;9.37;69.78;103271.31;4991225;28;45376;-74
2023/02/05 10:46:41;;;;;;;;;3.00;3.00;;;;;9.39;69.06;103281.84;4969207;28;45962;-74
2023/02/05 10:49:26;;;;;;;;;3.75;3.00;;;;;9.38;67.49;103277.47;5038142;28;47491;-74
2023/02/05 10:51:52;;;;;;;;;3.00;3.00;;;;;9.30;66.09;103270.41;4999977;27;45358;-74
2023/02/05 10:54:32;;;;;;;;;2.00;2.00;;;;;9.19;66.20;103257.19;4985001;28;45442;-72
2023/02/05 10:56:59;;;;;;;;;1.00;1.00;;;;;9.07;66.15;103233.44;5021452;27;46826;-74
2023/02/05 10:59:29;;;;;;;;;2.75;2.75;;;;;9.00;65.63;103221.97;5001595;28;45562;-77
2023/02/05 11:01:59;;;;;;;;;3.50;3.00;;;;;8.95;64.54;103228.06;4963069;28;45414;-75
2023/02/05 11:04:47;;;;;;;;;1.75;1.75;;;;;8.92;65.06;103223.66;5011907;28;45638;-73
2023/02/05 11:07:31;;;;;;;;;1.50;1.50;;;;;8.94;64.76;103218.44;4969528;28;47435;-73
2023/02/05 11:10:16;;;;;;;;;1.00;1.00;;;;;8.93;63.23;103214.91;4988191;28;46253;-72
2023/02/05 11:12:44;;;;;;;;;8.00;8.00;;;;;8.93;64.37;103212.28;4973255;28;45562;-74
2023/02/05 11:15:31;;;;;;;;;2.50;2.50;;;;;8.93;64.08;103219.31;4984910;28;45407;-71
2023/02/05 11:18:05;;;;;;;;;2.00;2.00;;;;;8.89;63.05;103227.16;4993738;27;45575;-70
2023/02/05 11:20:37;;;;;;;;;1.75;1.75;;;;;8.84;62.41;103222.72;4986756;28;47133;-72
2023/02/05 11:23:21;;;;;;;;;3.75;3.75;;;;;8.81;62.57;103233.19;4979761;28;45499;-70
2023/02/05 11:25:53;;;;;;;;;2.00;2.00;;;;;8.83;63.01;103245.47;5004879;28;45436;-71
2023/02/05 11:28:26;;;;;;;;;2.00;2.00;;;;;8.81;62.97;103234.06;4986430;28;45521;-73
2023/02/05 11:30:52;;;;;;;;;2.75;1.75;;;;;8.91;62.82;103230.69;5028513;28;46076;-73
2023/02/05 11:33:20;;;;;;;;;1.00;1.00;;;;;8.93;62.51;103225.41;4980063;28;45860;-73
2023/02/05 11:36:00;;;;;;;;;1.75;1.75;;;;;9.00;62.97;103221.13;4986601;28;45552;-71
2023/02/05 11:38:45;;;;;;;;;6.00;6.00;;;;;9.08;62.85;103195.81;5033255;27;45464;-71
2023/02/05 11:41:24;;;;;;;;;1.00;1.00;;;;;9.21;63.12;103188.91;4984964;28;45411;-77
2023/02/05 11:43:51;;;;;;;;;1.25;1.25;;;;;9.20;61.92;103190.66;4961553;28;45626;-71
2023/02/05 11:46:20;;;;;;;;;2.00;2.00;;;;;9.19;61.24;103217.78;4943455;28;46226;-76